createdAt,value
2022-08-19T00:02:00.374Z,98915.91
2022-08-19T00:05:05.253Z,98902.28
2022-08-19T00:08:07.879Z,98918.53
2022-08-19T00:11:11.706Z,98905.13
2022-08-19T00:14:24.157Z,98902.69
2022-08-19T00:17:29.467Z,98919.22
2022-08-19T00:20:32.138Z,98908.34
2022-08-19T00:23:37.161Z,98908.91
2022-08-19T00:26:41.066Z,98910.78
2022-08-19T00:29:44.087Z,98905.22
2022-08-19T00:32:47.195Z,98910.06
2022-08-19T00:35:55.946Z,98895.81
2022-08-19T00:38:59.557Z,98908.78
2022-08-19T00:42:03.098Z,98906.81
2022-08-19T00:48:15.174Z,98903.97
2022-08-19T00:51:17.941Z,98901.19
2022-08-19T00:54:24.864Z,98892.28
2022-08-19T00:57:39.140Z,98886.06
2022-08-19T01:00:42.229Z,98875.97
2022-08-19T01:03:58.218Z,98869.09
2022-08-19T01:07:02.925Z,98880.59
2022-08-19T01:10:09.563Z,98881.91
2022-08-19T01:13:20.345Z,98879.94
2022-08-19T01:16:26.239Z,98875.56
2022-08-19T01:19:44.221Z,98857.16
2022-08-19T01:22:50.492Z,98862.28
2022-08-19T01:25:55.417Z,98868.47
2022-08-19T01:29:01.050Z,98855.59
2022-08-19T01:32:04.612Z,98866.03
2022-08-19T01:35:07.641Z,98863.91
2022-08-19T01:38:21.477Z,98865.59
2022-08-19T01:41:24.553Z,98858.37
2022-08-19T01:44:27.522Z,98847.72
2022-08-19T01:47:30.204Z,98849.34
2022-08-19T01:50:34.942Z,98845.31
2022-08-19T01:53:38.483Z,98858.94
2022-08-19T01:56:42.011Z,98869.38
2022-08-19T01:59:46.093Z,98865.75
2022-08-19T02:02:49.095Z,98863.34
2022-08-19T02:06:00.738Z,98853.50
2022-08-19T02:09:09.021Z,98867.03
2022-08-19T02:12:11.892Z,98880.41
2022-08-19T02:15:14.721Z,98873.81
2022-08-19T02:18:17.900Z,98864.50
2022-08-19T02:21:22.553Z,98876.28
2022-08-19T02:24:25.939Z,98875.38
2022-08-19T02:27:28.783Z,98867.63
2022-08-19T02:30:33.551Z,98873.31
2022-08-19T02:33:36.203Z,98884.41
2022-08-19T02:36:42.341Z,98885.38
2022-08-19T02:39:45.423Z,98879.69
2022-08-19T02:42:48.422Z,98881.66
2022-08-19T02:45:52.257Z,98885.97
2022-08-19T02:48:58.513Z,98877.69
2022-08-19T02:52:01.153Z,98891.94
2022-08-19T02:55:06.254Z,98894.13
2022-08-19T02:58:09.151Z,98899.78
2022-08-19T03:01:20.438Z,98862.88
2022-08-19T03:04:24.017Z,98867.16
2022-08-19T03:07:26.915Z,98867.03
2022-08-19T03:10:29.573Z,98877.69
2022-08-19T03:13:33.143Z,98871.47
2022-08-19T03:16:46.241Z,98876.88
2022-08-19T03:19:49.333Z,98879.41
2022-08-19T03:22:52.397Z,98870.28
2022-08-19T03:26:03.298Z,98875.75
2022-08-19T03:29:31.617Z,98875.69
2022-08-19T03:32:34.841Z,98895.09
2022-08-19T03:35:37.861Z,98885.28
2022-08-19T03:38:47.262Z,98897.78
2022-08-19T03:42:45.429Z,98895.69
2022-08-19T03:45:14.119Z,98894.31
2022-08-19T03:48:18.343Z,98895.59
2022-08-19T03:51:30.599Z,98895.97
2022-08-19T03:54:34.179Z,98891.09
2022-08-19T03:57:37.078Z,98892.34
2022-08-19T04:00:44.025Z,98884.72
2022-08-19T04:03:47.705Z,98897.31
2022-08-19T04:06:52.395Z,98893.34
2022-08-19T04:09:55.558Z,98896.22
2022-08-19T04:12:58.373Z,98897.13
2022-08-19T04:16:01.410Z,98903.16
2022-08-19T04:19:06.705Z,98912.88
2022-08-19T04:22:10.517Z,98916.00
2022-08-19T04:25:13.196Z,98901.94
2022-08-19T04:28:16.974Z,98903.22
2022-08-19T04:31:27.052Z,98898.81
2022-08-19T04:34:30.645Z,98898.63
2022-08-19T04:37:43.415Z,98890.00
2022-08-19T04:41:29.104Z,98884.16
2022-08-19T04:44:36.158Z,98881.91
2022-08-19T04:47:47.820Z,98877.47
2022-08-19T04:51:00.601Z,98894.25
2022-08-19T04:54:04.583Z,98888.59
2022-08-19T04:57:11.246Z,98876.16
2022-08-19T05:00:14.561Z,98882.53
2022-08-19T05:03:17.989Z,98871.59
2022-08-19T05:06:22.502Z,98888.34
2022-08-19T05:09:25.211Z,98883.91
2022-08-19T05:12:29.849Z,98894.81
2022-08-19T05:15:33.024Z,98881.09
2022-08-19T05:18:54.371Z,98888.03
2022-08-19T05:22:15.635Z,98889.31
2022-08-19T05:25:21.863Z,98906.91
2022-08-19T05:28:24.827Z,98917.47
2022-08-19T05:31:27.824Z,98915.53
2022-08-19T05:34:30.929Z,98924.22
2022-08-19T05:37:33.860Z,98929.16
2022-08-19T05:40:39.895Z,98939.28
2022-08-19T05:43:42.826Z,98934.53
2022-08-19T05:46:48.039Z,98941.59
2022-08-19T05:49:51.736Z,98957.72
2022-08-19T05:52:54.486Z,98952.94
2022-08-19T05:55:57.427Z,98956.53
2022-08-19T05:59:02.064Z,98960.56
2022-08-19T06:02:07.551Z,98966.91
2022-08-19T06:05:11.153Z,98970.94
2022-08-19T06:08:13.779Z,98969.47
2022-08-19T06:11:18.510Z,98973.16
2022-08-19T06:14:27.881Z,98967.31
2022-08-19T06:17:32.224Z,98970.03
2022-08-19T06:20:55.160Z,98962.53
2022-08-19T06:23:59.104Z,98956.09
2022-08-19T06:27:04.252Z,98958.53
2022-08-19T06:30:08.137Z,98963.38
2022-08-19T06:33:10.769Z,98973.00
2022-08-19T06:36:30.743Z,98974.19
2022-08-19T06:39:37.344Z,98978.41
2022-08-19T06:42:43.271Z,98964.81
2022-08-19T06:45:57.663Z,98966.88
2022-08-19T06:49:02.232Z,98974.63
2022-08-19T06:52:06.710Z,98969.38
2022-08-19T06:55:10.244Z,98969.72
2022-08-19T06:58:12.948Z,98981.81
2022-08-19T07:01:16.429Z,98986.03
2022-08-19T07:04:22.062Z,98985.41
2022-08-19T07:07:25.096Z,98988.37
2022-08-19T07:10:27.855Z,98986.31
2022-08-19T07:13:36.407Z,98978.56
2022-08-19T07:16:42.824Z,98966.44
2022-08-19T07:19:46.234Z,98955.88
2022-08-19T07:22:50.372Z,98956.63
2022-08-19T07:25:53.509Z,98955.38
2022-08-19T07:28:58.560Z,98944.03
2022-08-19T07:32:02.559Z,98948.28
2022-08-19T07:35:07.138Z,98935.66
2022-08-19T07:38:10.638Z,98953.59
2022-08-19T07:41:15.955Z,98948.34
2022-08-19T07:44:21.093Z,98943.94
2022-08-19T07:47:58.576Z,98948.06
2022-08-19T07:50:46.785Z,98954.47
2022-08-19T07:53:51.490Z,98950.97
2022-08-19T07:56:54.917Z,98943.91
2022-08-19T07:59:57.593Z,98943.69
2022-08-19T08:03:00.731Z,98947.91
2022-08-19T08:06:22.461Z,98944.69
2022-08-19T08:09:39.363Z,98939.09
2022-08-19T08:12:42.511Z,98937.50
2022-08-19T08:15:45.757Z,98936.34
2022-08-19T08:18:50.661Z,98957.03
2022-08-19T08:21:59.107Z,98963.56
2022-08-19T08:25:06.727Z,98968.47
2022-08-19T08:28:11.417Z,98969.09
2022-08-19T08:31:20.692Z,98980.47
2022-08-19T08:34:23.514Z,98973.31
2022-08-19T08:37:26.416Z,98967.91
2022-08-19T08:40:43.051Z,98946.50
2022-08-19T08:43:48.369Z,98938.66
2022-08-19T08:46:57.008Z,98947.59
2022-08-19T08:50:29.748Z,98958.63
2022-08-19T08:53:35.685Z,98946.38
2022-08-19T08:56:44.278Z,98941.72
2022-08-19T08:59:52.755Z,98951.03
2022-08-19T09:02:58.458Z,98946.63
2022-08-19T09:06:12.449Z,98941.78
2022-08-19T09:09:20.149Z,98956.06
2022-08-19T09:12:58.761Z,98949.31
2022-08-19T09:16:19.405Z,98942.00
2022-08-19T09:19:23.842Z,98951.25
2022-08-19T09:22:27.810Z,98945.81
2022-08-19T09:25:32.859Z,98955.88
2022-08-19T09:28:36.017Z,98951.47
2022-08-19T09:31:41.890Z,98947.50
2022-08-19T09:34:47.588Z,98974.41
2022-08-19T09:37:57.802Z,98962.38
2022-08-19T09:41:07.500Z,98954.38
2022-08-19T09:44:12.242Z,98942.84
2022-08-19T09:47:16.337Z,98959.41
2022-08-19T09:50:24.862Z,98949.50
2022-08-19T09:53:28.003Z,98954.88
2022-08-19T09:56:32.630Z,98952.22
2022-08-19T09:59:36.959Z,98963.38
2022-08-19T10:02:39.671Z,98957.09
2022-08-19T10:05:49.679Z,98959.22
2022-08-19T10:08:53.537Z,98959.22
2022-08-19T10:11:56.893Z,98959.47
2022-08-19T10:15:00.077Z,98982.69
2022-08-19T10:18:03.045Z,98970.53
2022-08-19T10:21:13.667Z,98968.88
2022-08-19T10:24:18.566Z,98979.16
2022-08-19T10:27:21.728Z,98981.19
2022-08-19T10:30:24.925Z,98987.56
2022-08-19T10:33:39.297Z,98985.34
2022-08-19T10:36:56.346Z,98987.31
2022-08-19T10:40:06.087Z,98990.84
2022-08-19T10:43:09.381Z,98982.31
2022-08-19T10:46:16.564Z,98980.31
2022-08-19T10:49:25.154Z,98975.69
2022-08-19T10:52:38.997Z,98978.50
2022-08-19T10:56:00.839Z,98956.47
2022-08-19T10:59:04.878Z,98965.94
2022-08-19T11:02:13.982Z,98970.88
2022-08-19T11:05:18.114Z,98990.16
2022-08-19T11:08:23.093Z,99009.44
2022-08-19T11:11:28.098Z,99017.63
2022-08-19T11:14:32.194Z,99030.69
2022-08-19T11:17:37.023Z,99041.81
2022-08-19T11:20:40.509Z,99078.72
2022-08-19T11:23:44.283Z,99096.41
2022-08-19T11:26:51.964Z,99118.22
2022-08-19T11:29:55.176Z,99128.50
2022-08-19T11:32:58.385Z,99131.00
2022-08-19T11:36:02.539Z,99150.81
2022-08-19T11:39:08.132Z,99139.53
2022-08-19T11:42:29.280Z,99128.81
2022-08-19T11:45:32.259Z,99116.06
2022-08-19T11:48:36.081Z,99108.75
2022-08-19T11:51:40.110Z,99086.97
2022-08-19T11:54:42.985Z,99099.66
2022-08-19T11:57:46.905Z,99112.59
2022-08-19T12:00:49.589Z,99114.31
2022-08-19T12:03:54.560Z,99115.56
2022-08-19T12:06:57.361Z,99122.91
2022-08-19T12:10:01.713Z,99115.53
2022-08-19T12:13:07.773Z,99113.84
2022-08-19T12:16:13.521Z,99102.78
2022-08-19T12:19:16.709Z,99086.37
2022-08-19T12:22:25.657Z,99083.56
2022-08-19T12:25:28.651Z,99092.47
2022-08-19T12:28:32.097Z,99100.13
2022-08-19T12:31:34.880Z,99129.09
2022-08-19T12:34:39.007Z,99145.97
2022-08-19T12:37:43.347Z,99164.09
2022-08-19T12:40:48.102Z,99166.44
2022-08-19T12:43:51.166Z,99145.53
2022-08-19T12:46:54.702Z,99160.44
2022-08-19T12:49:57.528Z,99124.94
2022-08-19T12:53:00.526Z,99124.97
2022-08-19T12:56:03.907Z,99119.78
2022-08-19T12:59:12.226Z,99112.03
2022-08-19T13:02:14.933Z,99110.75
2022-08-19T13:05:25.440Z,99082.12
2022-08-19T13:08:28.439Z,99071.00
2022-08-19T13:11:35.419Z,99060.72
2022-08-19T13:14:39.252Z,99073.63
2022-08-19T13:17:42.486Z,99057.19
2022-08-19T13:20:52.389Z,99042.09
2022-08-19T13:23:56.189Z,99060.22
2022-08-19T13:27:00.009Z,99039.31
2022-08-19T13:30:24.298Z,99024.59
2022-08-19T13:33:27.862Z,99034.41
2022-08-19T13:36:30.934Z,99029.59
2022-08-19T13:39:34.953Z,98994.59
2022-08-19T13:42:37.975Z,98985.31
2022-08-19T13:45:41.019Z,98974.69
2022-08-19T13:48:44.347Z,98957.81
2022-08-19T13:51:48.502Z,98956.28
2022-08-19T13:54:51.434Z,98962.59
2022-08-19T13:57:56.745Z,98974.38
2022-08-19T14:01:00.380Z,98964.97
2022-08-19T14:04:04.527Z,98978.44
2022-08-19T14:07:07.158Z,98968.28
2022-08-19T14:10:12.159Z,98962.00
2022-08-19T14:13:18.951Z,98961.19
2022-08-19T14:16:22.722Z,98945.97
2022-08-19T14:19:25.346Z,98935.75
2022-08-19T14:22:33.097Z,98930.59
2022-08-19T14:25:36.016Z,98925.41
2022-08-19T14:28:41.899Z,98915.00
2022-08-19T14:31:45.340Z,98909.47
2022-08-19T14:34:48.673Z,98911.81
2022-08-19T14:37:56.309Z,98911.00
2022-08-19T14:41:18.417Z,98880.37
2022-08-19T14:44:21.409Z,98872.28
2022-08-19T14:47:24.347Z,98879.53
2022-08-19T14:50:27.787Z,98875.19
2022-08-19T14:53:30.841Z,98919.03
2022-08-19T14:56:33.497Z,98941.59
2022-08-19T14:59:36.642Z,98933.87
2022-08-19T15:02:39.499Z,98963.63
2022-08-19T15:05:42.432Z,98980.25
2022-08-19T15:08:45.926Z,98965.25
2022-08-19T15:11:49.922Z,98919.91
2022-08-19T15:14:55.855Z,98930.25
2022-08-19T15:18:03.392Z,98927.66
2022-08-19T15:21:06.202Z,98931.47
2022-08-19T15:24:10.370Z,98931.56
2022-08-19T15:27:13.966Z,98915.28
2022-08-19T15:30:23.046Z,98896.75
2022-08-19T15:33:26.968Z,98895.66
2022-08-19T15:36:30.500Z,98879.00
2022-08-19T15:39:33.410Z,98870.97
2022-08-19T15:42:38.626Z,98870.97
2022-08-19T15:45:44.309Z,98878.97
2022-08-19T15:48:56.179Z,98858.50
2022-08-19T15:52:02.650Z,98834.91
2022-08-19T15:55:07.591Z,98821.75
2022-08-19T15:58:32.375Z,98829.09
2022-08-19T16:01:54.101Z,98815.50
2022-08-19T16:05:16.558Z,98817.16
2022-08-19T16:08:19.653Z,98821.97
2022-08-19T16:11:29.323Z,98803.94
2022-08-19T16:14:35.987Z,98813.16
2022-08-19T16:17:38.994Z,98818.72
2022-08-19T16:20:41.775Z,98815.47
2022-08-19T16:23:48.530Z,98820.69
2022-08-19T16:26:51.837Z,98813.81
2022-08-19T16:29:55.108Z,98822.66
2022-08-19T16:32:57.874Z,98822.59
2022-08-19T16:36:06.875Z,98814.47
2022-08-19T16:39:12.463Z,98815.66
2022-08-19T16:42:15.735Z,98833.22
2022-08-19T16:45:22.009Z,98827.16
2022-08-19T16:48:30.241Z,98836.28
2022-08-19T16:51:35.901Z,98844.19
2022-08-19T16:54:38.835Z,98842.91
2022-08-19T16:57:41.798Z,98856.44
2022-08-19T17:00:45.866Z,98853.94
2022-08-19T17:03:51.552Z,98861.38
2022-08-19T17:06:54.529Z,98868.91
2022-08-19T17:09:57.465Z,98857.59
2022-08-19T17:13:00.506Z,98861.34
2022-08-19T17:16:03.502Z,98856.91
2022-08-19T17:19:09.129Z,98855.13
2022-08-19T17:22:13.073Z,98871.47
2022-08-19T17:25:15.968Z,98884.53
2022-08-19T17:28:23.210Z,98895.19
2022-08-19T17:31:28.377Z,98910.31
2022-08-19T17:34:31.007Z,98892.19
2022-08-19T17:37:36.264Z,98920.34
2022-08-19T17:40:42.143Z,98931.34
2022-08-19T17:43:46.032Z,98931.41
2022-08-19T17:46:48.748Z,98925.28
2022-08-19T17:49:52.201Z,98915.09
2022-08-19T17:52:55.927Z,98909.31
2022-08-19T17:55:59.805Z,98912.84
2022-08-19T17:59:02.446Z,98931.50
2022-08-19T18:02:10.243Z,98944.22
2022-08-19T18:05:14.242Z,98965.34
2022-08-19T18:08:17.277Z,98978.16
2022-08-19T18:11:20.580Z,98959.78
2022-08-19T18:14:32.829Z,98941.16
2022-08-19T18:17:37.335Z,98945.41
2022-08-19T18:20:40.093Z,98947.09
2022-08-19T18:23:45.758Z,98947.16
2022-08-19T18:26:49.311Z,98941.75
2022-08-19T18:29:52.503Z,98978.50
2022-08-19T18:32:55.160Z,98971.31
2022-08-19T18:35:58.082Z,98968.84
2022-08-19T18:39:19.702Z,98978.25
2022-08-19T18:42:42.220Z,98985.78
2022-08-19T18:46:03.885Z,98970.78
2022-08-19T18:49:12.508Z,98967.19
2022-08-19T18:52:15.181Z,98967.03
2022-08-19T18:55:18.678Z,98983.53
2022-08-19T18:58:33.627Z,98987.84
2022-08-19T19:01:39.612Z,98993.50
2022-08-19T19:04:42.359Z,99002.87
2022-08-19T19:07:45.285Z,99010.84
2022-08-19T19:10:48.413Z,99022.28
2022-08-19T19:13:55.901Z,99020.44
2022-08-19T19:17:00.395Z,99033.47
2022-08-19T19:20:04.760Z,99020.84
2022-08-19T19:23:08.500Z,99017.09
2022-08-19T19:26:13.293Z,99029.66
2022-08-19T19:29:17.874Z,99020.47
2022-08-19T19:32:24.581Z,99032.72
2022-08-19T19:35:27.395Z,99050.50
2022-08-19T19:38:30.307Z,99054.78
2022-08-19T19:41:35.511Z,99054.34
2022-08-19T19:44:47.230Z,99054.53
2022-08-19T19:47:50.240Z,99068.91
2022-08-19T19:50:54.087Z,99076.31
2022-08-19T19:53:59.519Z,99076.97
2022-08-19T19:57:02.771Z,99072.91
2022-08-19T20:00:08.310Z,99081.91
2022-08-19T20:03:11.380Z,99073.44
2022-08-19T20:06:16.635Z,99090.53
2022-08-19T20:09:20.047Z,99096.72
2022-08-19T20:12:22.743Z,99100.56
2022-08-19T20:15:25.733Z,99108.31
2022-08-19T20:18:28.681Z,99117.97
2022-08-19T20:21:32.445Z,99122.75
2022-08-19T20:24:36.260Z,99128.41
2022-08-19T20:27:39.779Z,99135.16
2022-08-19T20:30:46.329Z,99127.41
2022-08-19T20:33:50.452Z,99148.47
2022-08-19T20:36:53.355Z,99141.19
2022-08-19T20:39:56.266Z,99129.28
2022-08-19T20:42:58.940Z,99140.78
2022-08-19T20:46:04.545Z,99141.28
2022-08-19T20:49:08.238Z,99143.62
2022-08-19T20:52:11.218Z,99148.19
2022-08-19T20:55:14.068Z,99116.34
2022-08-19T20:58:22.599Z,99128.62
2022-08-19T21:01:25.302Z,99124.47
2022-08-19T21:04:28.554Z,99116.03
2022-08-19T21:07:39.069Z,99111.94
2022-08-19T21:10:42.798Z,99106.25
2022-08-19T21:13:45.419Z,99100.47
2022-08-19T21:16:49.357Z,99086.47
2022-08-19T21:19:52.076Z,99079.41
2022-08-19T21:22:54.949Z,99104.09
2022-08-19T21:25:59.798Z,99105.16
2022-08-19T21:29:02.802Z,99105.88
2022-08-19T21:32:05.797Z,99103.44
2022-08-19T21:35:08.823Z,99084.81
2022-08-19T21:38:11.894Z,99090.25
2022-08-19T21:41:14.878Z,99077.06
2022-08-19T21:44:17.661Z,99071.03
2022-08-19T21:47:20.666Z,99083.56
2022-08-19T21:50:28.197Z,99076.50
2022-08-19T21:53:34.584Z,99073.16
2022-08-19T21:56:40.061Z,99056.56
2022-08-19T21:59:43.993Z,99059.69
2022-08-19T22:02:47.143Z,99052.41
2022-08-19T22:05:50.847Z,99050.78
2022-08-19T22:08:56.598Z,99052.75
2022-08-19T22:11:59.666Z,99034.78
2022-08-19T22:15:03.512Z,99014.41
2022-08-19T22:18:06.464Z,99021.72
2022-08-19T22:21:11.902Z,99022.53
2022-08-19T22:24:15.238Z,99028.91
2022-08-19T22:27:18.659Z,99013.84
2022-08-19T22:30:23.475Z,99015.94
2022-08-19T22:33:27.714Z,99011.31
2022-08-19T22:36:31.726Z,99013.72
2022-08-19T22:39:35.886Z,99018.94
2022-08-19T22:42:39.267Z,99028.22
2022-08-19T22:45:43.285Z,99031.56
2022-08-19T22:48:47.662Z,99038.41
2022-08-19T22:52:09.153Z,99024.50
2022-08-19T22:55:12.078Z,99034.00
2022-08-19T22:58:27.849Z,99029.12
2022-08-19T23:01:31.396Z,99035.63
2022-08-19T23:04:34.587Z,99052.28
2022-08-19T23:07:37.986Z,99074.06
2022-08-19T23:10:40.965Z,99076.34
2022-08-19T23:13:43.866Z,99087.69
2022-08-19T23:16:50.960Z,99090.59
2022-08-19T23:19:54.573Z,99097.31
2022-08-19T23:22:58.054Z,99106.78
2022-08-19T23:26:01.728Z,99123.00
2022-08-19T23:29:24.520Z,99119.75
2022-08-19T23:32:27.410Z,99119.97
2022-08-19T23:35:36.376Z,99112.44
2022-08-19T23:38:41.385Z,99111.59
2022-08-19T23:41:43.974Z,99108.69
2022-08-19T23:44:51.285Z,99098.25
2022-08-19T23:47:55.540Z,99050.47
2022-08-19T23:51:00.126Z,99016.31
2022-08-19T23:54:02.805Z,98982.28
2022-08-19T23:57:13.937Z,98982.03
